Clay Center Municipal Airport


Codes: KCYW/
Name: Clay Center Municipal Airport
City: Clay Center
Country: United States
Elevation: 1208 ft.

Photos at Clay Center Municipal Airport


   Photos courtesy of SpottingLog. You can add your own sightings and photos by signing up for a free trial today.



No photos found.

Weather at Clay Center Municipal Airport


Time (UTC)DescriptionTempratureWindCloud coverageVisibilityPressureHumidity
21-Jun-2024 12:00Few Clouds22°C9 mph, S17%10000m1019hPa89%
21-Jun-2024 15:00Few Clouds26°C16 mph, S11%10000m1019hPa74%
21-Jun-2024 18:00Clear Sky32°C18 mph, S8%10000m1016hPa51%
21-Jun-2024 21:00Broken Clouds31°C18 mph, SW65%10000m1015hPa56%
22-Jun-2024 00:00Broken Clouds30°C20 mph, S74%10000m1013hPa62%
22-Jun-2024 03:00Overcast Clouds26°C20 mph, S98%10000m1012hPa74%
22-Jun-2024 06:00Overcast Clouds26°C20 mph, S97%10000m1012hPa65%
22-Jun-2024 09:00Light Rain25°C18 mph, S59%10000m1011hPa69%
22-Jun-2024 12:00Broken Clouds25°C20 mph, S63%10000m1010hPa66%
22-Jun-2024 15:00Scattered Clouds29°C22 mph, SW39%10000m1009hPa56%
22-Jun-2024 18:00Scattered Clouds33°C18 mph, SW29%10000m1008hPa43%
22-Jun-2024 21:00Scattered Clouds37°C11 mph, W47%10000m1006hPa35%
23-Jun-2024 00:00Broken Clouds32°C16 mph, NW73%10000m1007hPa58%
23-Jun-2024 03:00Broken Clouds25°C13 mph, N64%10000m1010hPa78%
23-Jun-2024 06:00Scattered Clouds22°C9 mph, N44%10000m1012hPa90%
23-Jun-2024 09:00Few Clouds20°C4 mph, NE13%10000m1012hPa96%
23-Jun-2024 12:00Few Clouds20°C4 mph, NE14%10000m1013hPa94%
23-Jun-2024 15:00Few Clouds26°C7 mph, E13%10000m1013hPa68%
23-Jun-2024 18:00Clear Sky32°C9 mph, SE6%10000m1011hPa48%
23-Jun-2024 21:00Few Clouds34°C9 mph, S18%10000m1010hPa38%
24-Jun-2024 00:00Few Clouds32°C11 mph, SE17%10000m1008hPa49%
24-Jun-2024 03:00Clear Sky26°C11 mph, SE9%10000m1009hPa76%
24-Jun-2024 06:00Broken Clouds24°C9 mph, S51%10000m1008hPa87%
24-Jun-2024 09:00Overcast Clouds23°C7 mph, S100%10000m1008hPa91%
24-Jun-2024 12:00Broken Clouds23°C7 mph, SE71%10000m1007hPa86%
24-Jun-2024 15:00Overcast Clouds30°C13 mph, S100%10000m1007hPa53%
24-Jun-2024 18:00Overcast Clouds37°C16 mph, S100%10000m1005hPa35%
24-Jun-2024 21:00Overcast Clouds39°C20 mph, S99%10000m1003hPa28%
25-Jun-2024 00:00Overcast Clouds35°C18 mph, S91%10000m1003hPa35%
25-Jun-2024 03:00Scattered Clouds29°C16 mph, S46%10000m1003hPa58%
25-Jun-2024 06:00Scattered Clouds29°C13 mph, S36%10000m1004hPa55%
25-Jun-2024 09:00Light Rain28°C16 mph, S100%10000m1003hPa55%
25-Jun-2024 12:00Overcast Clouds25°C16 mph, S92%10000m1004hPa69%
25-Jun-2024 15:00Overcast Clouds29°C18 mph, S100%10000m1004hPa59%
25-Jun-2024 18:00Overcast Clouds32°C11 mph, SW99%10000m1004hPa51%
25-Jun-2024 21:00Broken Clouds36°C11 mph, NW69%10000m1004hPa36%
26-Jun-2024 00:00Light Rain28°C16 mph, N33%10000m1007hPa64%
26-Jun-2024 03:00Light Rain24°C18 mph, N2%10000m1009hPa61%
26-Jun-2024 06:00Clear Sky20°C7 mph, N1%10000m1013hPa73%
26-Jun-2024 09:00Clear Sky18°C7 mph, N0%10000m1012hPa75%